sensor_id;sensor_type;location;lat;lon;timestamp;temperature;humidity
71563;DHT22;59391;52.504;13.438;2022-12-07T00:03:37;5.20;71.60
71563;DHT22;59391;52.504;13.438;2022-12-07T00:06:05;5.10;71.30
71563;DHT22;59391;52.504;13.438;2022-12-07T00:08:33;5.10;71.60
71563;DHT22;59391;52.504;13.438;2022-12-07T00:11:07;5.10;70.90
71563;DHT22;59391;52.504;13.438;2022-12-07T00:13:35;5.00;71.20
71563;DHT22;59391;52.504;13.438;2022-12-07T00:16:07;5.00;71.50
71563;DHT22;59391;52.504;13.438;2022-12-07T00:18:35;5.00;71.50
71563;DHT22;59391;52.504;13.438;2022-12-07T00:21:04;5.00;72.00
71563;DHT22;59391;52.504;13.438;2022-12-07T00:23:54;5.00;71.50
71563;DHT22;59391;52.504;13.438;2022-12-07T00:28:55;5.00;70.90
71563;DHT22;59391;52.504;13.438;2022-12-07T00:31:28;5.00;71.20
71563;DHT22;59391;52.504;13.438;2022-12-07T00:33:57;5.00;70.50
71563;DHT22;59391;52.504;13.438;2022-12-07T00:36:24;4.90;67.60
71563;DHT22;59391;52.504;13.438;2022-12-07T00:38:54;4.90;68.90
71563;DHT22;59391;52.504;13.438;2022-12-07T00:41:22;4.90;69.50
71563;DHT22;59391;52.504;13.438;2022-12-07T00:43:50;4.90;69.40
71563;DHT22;59391;52.504;13.438;2022-12-07T00:46:17;4.90;69.10
71563;DHT22;59391;52.504;13.438;2022-12-07T00:48:45;4.90;69.40
71563;DHT22;59391;52.504;13.438;2022-12-07T00:53:56;4.80;68.70
71563;DHT22;59391;52.504;13.438;2022-12-07T00:56:33;4.80;68.00
71563;DHT22;59391;52.504;13.438;2022-12-07T00:59:14;4.80;68.30
71563;DHT22;59391;52.504;13.438;2022-12-07T01:02:28;4.80;68.40
71563;DHT22;59391;52.504;13.438;2022-12-07T01:07:53;4.70;68.10
71563;DHT22;59391;52.504;13.438;2022-12-07T01:10:25;4.70;67.60
71563;DHT22;59391;52.504;13.438;2022-12-07T01:12:58;4.70;67.80
71563;DHT22;59391;52.504;13.438;2022-12-07T01:15:56;4.60;67.10
71563;DHT22;59391;52.504;13.438;2022-12-07T01:18:55;4.60;66.80
71563;DHT22;59391;52.504;13.438;2022-12-07T01:24:25;4.60;67.10
71563;DHT22;59391;52.504;13.438;2022-12-07T01:31:26;4.50;68.00
71563;DHT22;59391;52.504;13.438;2022-12-07T01:34:06;4.50;67.10
71563;DHT22;59391;52.504;13.438;2022-12-07T01:39:55;4.50;66.50
71563;DHT22;59391;52.504;13.438;2022-12-07T01:50:49;4.50;67.00
71563;DHT22;59391;52.504;13.438;2022-12-07T03:24:48;4.10;68.80
71563;DHT22;59391;52.504;13.438;2022-12-07T03:30:47;4.00;69.00
71563;DHT22;59391;52.504;13.438;2022-12-07T03:34:06;4.00;69.30
71563;DHT22;59391;52.504;13.438;2022-12-07T03:36:45;4.00;69.40
71563;DHT22;59391;52.504;13.438;2022-12-07T03:50:05;3.80;70.10
71563;DHT22;59391;52.504;13.438;2022-12-07T04:00:57;3.70;70.60
71563;DHT22;59391;52.504;13.438;2022-12-07T04:04:11;3.70;71.30
71563;DHT22;59391;52.504;13.438;2022-12-07T04:07:26;3.60;71.40
71563;DHT22;59391;52.504;13.438;2022-12-07T04:10:08;3.60;71.90
71563;DHT22;59391;52.504;13.438;2022-12-07T04:12:49;3.60;71.90
71563;DHT22;59391;52.504;13.438;2022-12-07T04:15:46;3.50;72.30
71563;DHT22;59391;52.504;13.438;2022-12-07T04:18:21;3.50;72.50
71563;DHT22;59391;52.504;13.438;2022-12-07T04:20:54;3.50;72.80
71563;DHT22;59391;52.504;13.438;2022-12-07T04:23:20;3.40;73.40
71563;DHT22;59391;52.504;13.438;2022-12-07T04:25:48;3.40;73.60
71563;DHT22;59391;52.504;13.438;2022-12-07T04:28:14;3.40;73.80
71563;DHT22;59391;52.504;13.438;2022-12-07T04:30:42;3.30;74.00
71563;DHT22;59391;52.504;13.438;2022-12-07T04:33:07;3.30;74.40
71563;DHT22;59391;52.504;13.438;2022-12-07T04:35:53;3.30;74.90
71563;DHT22;59391;52.504;13.438;2022-12-07T04:38:22;3.30;76.00
71563;DHT22;59391;52.504;13.438;2022-12-07T04:40:47;3.30;76.40
71563;DHT22;59391;52.504;13.438;2022-12-07T04:43:31;3.30;77.40
71563;DHT22;59391;52.504;13.438;2022-12-07T04:46:17;3.30;77.10
71563;DHT22;59391;52.504;13.438;2022-12-07T04:48:50;3.30;77.90
71563;DHT22;59391;52.504;13.438;2022-12-07T04:51:29;3.30;77.80
71563;DHT22;59391;52.504;13.438;2022-12-07T04:54:18;3.30;78.30
71563;DHT22;59391;52.504;13.438;2022-12-07T05:00:22;3.40;78.20
71563;DHT22;59391;52.504;13.438;2022-12-07T05:02:51;3.40;78.60
71563;DHT22;59391;52.504;13.438;2022-12-07T05:05:48;3.40;78.50
71563;DHT22;59391;52.504;13.438;2022-12-07T05:12:36;3.40;79.40
71563;DHT22;59391;52.504;13.438;2022-12-07T05:18:23;3.50;79.50
71563;DHT22;59391;52.504;13.438;2022-12-07T05:21:04;3.50;79.60
71563;DHT22;59391;52.504;13.438;2022-12-07T05:23:55;3.50;79.60
71563;DHT22;59391;52.504;13.438;2022-12-07T05:26:59;3.60;79.70
71563;DHT22;59391;52.504;13.438;2022-12-07T05:29:46;3.60;79.70
71563;DHT22;59391;52.504;13.438;2022-12-07T05:32:12;3.60;79.80
71563;DHT22;59391;52.504;13.438;2022-12-07T05:34:48;3.60;80.10
71563;DHT22;59391;52.504;13.438;2022-12-07T05:37:23;3.70;79.70
71563;DHT22;59391;52.504;13.438;2022-12-07T05:39:52;3.70;80.10
71563;DHT22;59391;52.504;13.438;2022-12-07T05:48:57;3.80;80.30
71563;DHT22;59391;52.504;13.438;2022-12-07T05:51:31;3.80;80.70
71563;DHT22;59391;52.504;13.438;2022-12-07T05:53:57;3.90;80.70
71563;DHT22;59391;52.504;13.438;2022-12-07T05:56:23;3.90;80.50
71563;DHT22;59391;52.504;13.438;2022-12-07T05:58:49;4.00;81.00
71563;DHT22;59391;52.504;13.438;2022-12-07T06:01:33;4.00;81.00
71563;DHT22;59391;52.504;13.438;2022-12-07T06:04:02;4.10;80.90
71563;DHT22;59391;52.504;13.438;2022-12-07T06:06:28;4.10;81.20
71563;DHT22;59391;52.504;13.438;2022-12-07T06:08:57;4.10;80.70
71563;DHT22;59391;52.504;13.438;2022-12-07T06:11:23;4.20;81.20
71563;DHT22;59391;52.504;13.438;2022-12-07T06:14:10;4.20;81.00
71563;DHT22;59391;52.504;13.438;2022-12-07T06:16:37;4.30;80.20
71563;DHT22;59391;52.504;13.438;2022-12-07T06:19:03;4.30;81.00
71563;DHT22;59391;52.504;13.438;2022-12-07T06:21:29;4.30;80.80
71563;DHT22;59391;52.504;13.438;2022-12-07T06:23:58;4.40;80.70
71563;DHT22;59391;52.504;13.438;2022-12-07T06:26:29;4.40;80.70
71563;DHT22;59391;52.504;13.438;2022-12-07T06:28:55;4.50;80.60
71563;DHT22;59391;52.504;13.438;2022-12-07T06:31:27;4.50;80.50
71563;DHT22;59391;52.504;13.438;2022-12-07T06:34:01;4.50;80.10
71563;DHT22;59391;52.504;13.438;2022-12-07T06:36:38;4.50;79.70
71563;DHT22;59391;52.504;13.438;2022-12-07T06:39:04;4.50;79.90
71563;DHT22;59391;52.504;13.438;2022-12-07T06:41:31;4.50;80.30
71563;DHT22;59391;52.504;13.438;2022-12-07T06:43:57;4.50;80.50
71563;DHT22;59391;52.504;13.438;2022-12-07T06:46:23;4.50;80.40
71563;DHT22;59391;52.504;13.438;2022-12-07T06:48:49;4.50;80.30
71563;DHT22;59391;52.504;13.438;2022-12-07T06:51:15;4.50;80.20
71563;DHT22;59391;52.504;13.438;2022-12-07T06:53:44;4.50;80.50
71563;DHT22;59391;52.504;13.438;2022-12-07T06:56:10;4.50;80.50
71563;DHT22;59391;52.504;13.438;2022-12-07T06:58:39;4.50;80.10
71563;DHT22;59391;52.504;13.438;2022-12-07T07:01:13;4.50;80.70
71563;DHT22;59391;52.504;13.438;2022-12-07T07:03:45;4.60;80.30
71563;DHT22;59391;52.504;13.438;2022-12-07T07:06:12;4.60;80.30
71563;DHT22;59391;52.504;13.438;2022-12-07T07:08:39;4.60;80.90
71563;DHT22;59391;52.504;13.438;2022-12-07T07:11:06;4.70;81.50
71563;DHT22;59391;52.504;13.438;2022-12-07T07:13:55;4.80;81.40
71563;DHT22;59391;52.504;13.438;2022-12-07T07:16:26;4.80;80.30
71563;DHT22;59391;52.504;13.438;2022-12-07T07:19:07;4.80;81.70
71563;DHT22;59391;52.504;13.438;2022-12-07T07:21:41;4.80;80.40
71563;DHT22;59391;52.504;13.438;2022-12-07T07:24:14;4.90;81.10
71563;DHT22;59391;52.504;13.438;2022-12-07T07:26:55;4.90;80.80
71563;DHT22;59391;52.504;13.438;2022-12-07T07:29:27;4.90;80.10
71563;DHT22;59391;52.504;13.438;2022-12-07T07:34:59;5.00;80.20
71563;DHT22;59391;52.504;13.438;2022-12-07T07:37:57;5.10;79.50
71563;DHT22;59391;52.504;13.438;2022-12-07T07:40:42;5.10;80.50
71563;DHT22;59391;52.504;13.438;2022-12-07T07:43:46;5.10;79.80
71563;DHT22;59391;52.504;13.438;2022-12-07T07:47:13;5.20;79.80
71563;DHT22;59391;52.504;13.438;2022-12-07T07:49:58;5.20;78.90
71563;DHT22;59391;52.504;13.438;2022-12-07T07:53:08;5.20;78.60
71563;DHT22;59391;52.504;13.438;2022-12-07T07:56:09;5.20;79.70
71563;DHT22;59391;52.504;13.438;2022-12-07T07:59:04;5.20;78.30
71563;DHT22;59391;52.504;13.438;2022-12-07T08:01:40;5.20;78.20
71563;DHT22;59391;52.504;13.438;2022-12-07T08:04:16;5.20;79.10
71563;DHT22;59391;52.504;13.438;2022-12-07T08:13:38;5.20;77.40
71563;DHT22;59391;52.504;13.438;2022-12-07T08:16:14;5.20;76.40
71563;DHT22;59391;52.504;13.438;2022-12-07T08:21:45;5.30;77.60
71563;DHT22;59391;52.504;13.438;2022-12-07T08:24:19;5.30;76.20
71563;DHT22;59391;52.504;13.438;2022-12-07T08:27:05;5.30;76.80
71563;DHT22;59391;52.504;13.438;2022-12-07T08:30:12;5.30;76.60
71563;DHT22;59391;52.504;13.438;2022-12-07T08:33:10;5.30;78.10
71563;DHT22;59391;52.504;13.438;2022-12-07T08:35:38;5.40;75.80
71563;DHT22;59391;52.504;13.438;2022-12-07T08:38:12;5.40;78.50
71563;DHT22;59391;52.504;13.438;2022-12-07T08:40:52;5.40;78.70
71563;DHT22;59391;52.504;13.438;2022-12-07T08:43:28;5.40;76.10
71563;DHT22;59391;52.504;13.438;2022-12-07T08:46:33;5.40;75.80
71563;DHT22;59391;52.504;13.438;2022-12-07T08:50:09;5.40;74.80
71563;DHT22;59391;52.504;13.438;2022-12-07T08:56:34;5.40;73.30
71563;DHT22;59391;52.504;13.438;2022-12-07T08:59:14;5.50;74.50
71563;DHT22;59391;52.504;13.438;2022-12-07T09:01:47;5.50;75.50
71563;DHT22;59391;52.504;13.438;2022-12-07T09:04:53;5.50;72.90
71563;DHT22;59391;52.504;13.438;2022-12-07T09:07:37;5.50;71.30
71563;DHT22;59391;52.504;13.438;2022-12-07T09:10:27;5.50;70.30
71563;DHT22;59391;52.504;13.438;2022-12-07T09:13:48;5.50;72.40
71563;DHT22;59391;52.504;13.438;2022-12-07T09:16:22;5.50;70.00
71563;DHT22;59391;52.504;13.438;2022-12-07T09:22:13;5.50;68.70
71563;DHT22;59391;52.504;13.438;2022-12-07T09:24:55;5.50;71.10
71563;DHT22;59391;52.504;13.438;2022-12-07T09:28:14;5.50;67.90
71563;DHT22;59391;52.504;13.438;2022-12-07T09:30:55;5.50;70.60
71563;DHT22;59391;52.504;13.438;2022-12-07T09:33:23;5.40;65.60
71563;DHT22;59391;52.504;13.438;2022-12-07T09:35:57;5.40;64.80
71563;DHT22;59391;52.504;13.438;2022-12-07T09:38:26;5.40;67.70
71563;DHT22;59391;52.504;13.438;2022-12-07T09:41:13;5.40;65.50
71563;DHT22;59391;52.504;13.438;2022-12-07T09:43:46;5.40;69.60
71563;DHT22;59391;52.504;13.438;2022-12-07T09:46:57;5.40;66.90
71563;DHT22;59391;52.504;13.438;2022-12-07T09:49:57;5.40;66.80
71563;DHT22;59391;52.504;13.438;2022-12-07T09:53:28;5.40;69.70
71563;DHT22;59391;52.504;13.438;2022-12-07T10:06:15;5.40;66.10
71563;DHT22;59391;52.504;13.438;2022-12-07T10:08:47;5.30;64.40
71563;DHT22;59391;52.504;13.438;2022-12-07T10:22:20;5.30;66.40
71563;DHT22;59391;52.504;13.438;2022-12-07T10:39:37;5.40;66.00
71563;DHT22;59391;52.504;13.438;2022-12-07T11:19:31;5.50;70.20
71563;DHT22;59391;52.504;13.438;2022-12-07T11:22:44;5.60;68.50
71563;DHT22;59391;52.504;13.438;2022-12-07T11:36:41;5.60;71.70
71563;DHT22;59391;52.504;13.438;2022-12-07T13:51:47;6.50;67.10
71563;DHT22;59391;52.504;13.438;2022-12-07T13:54:30;6.50;68.90
71563;DHT22;59391;52.504;13.438;2022-12-07T13:58:08;6.50;68.20
71563;DHT22;59391;52.504;13.438;2022-12-07T14:00:58;6.50;67.50
71563;DHT22;59391;52.504;13.438;2022-12-07T14:06:27;6.60;69.50
71563;DHT22;59391;52.504;13.438;2022-12-07T14:09:20;6.60;67.10
71563;DHT22;59391;52.504;13.438;2022-12-07T14:11:53;6.50;68.30
71563;DHT22;59391;52.504;13.438;2022-12-07T14:14:31;6.50;68.60
71563;DHT22;59391;52.504;13.438;2022-12-07T14:17:09;6.50;68.60
71563;DHT22;59391;52.504;13.438;2022-12-07T14:19:57;6.60;67.90
71563;DHT22;59391;52.504;13.438;2022-12-07T14:22:31;6.50;66.70
71563;DHT22;59391;52.504;13.438;2022-12-07T14:29:49;6.50;67.90
71563;DHT22;59391;52.504;13.438;2022-12-07T14:32:39;6.50;66.10
71563;DHT22;59391;52.504;13.438;2022-12-07T14:35:16;6.50;68.10
71563;DHT22;59391;52.504;13.438;2022-12-07T14:38:03;6.50;66.90
71563;DHT22;59391;52.504;13.438;2022-12-07T14:41:04;6.40;67.30
71563;DHT22;59391;52.504;13.438;2022-12-07T14:44:07;6.50;68.90
71563;DHT22;59391;52.504;13.438;2022-12-07T14:46:40;6.40;70.80
71563;DHT22;59391;52.504;13.438;2022-12-07T14:49:11;6.50;69.50
71563;DHT22;59391;52.504;13.438;2022-12-07T14:52:23;6.40;67.80
71563;DHT22;59391;52.504;13.438;2022-12-07T14:54:55;6.40;68.60
71563;DHT22;59391;52.504;13.438;2022-12-07T14:57:23;6.40;67.10
71563;DHT22;59391;52.504;13.438;2022-12-07T15:00:21;6.30;70.30
71563;DHT22;59391;52.504;13.438;2022-12-07T15:02:49;6.30;68.70
71563;DHT22;59391;52.504;13.438;2022-12-07T15:05:28;6.30;70.20
71563;DHT22;59391;52.504;13.438;2022-12-07T15:08:00;6.30;69.00
71563;DHT22;59391;52.504;13.438;2022-12-07T15:10:29;6.30;68.70
71563;DHT22;59391;52.504;13.438;2022-12-07T15:12:58;6.20;67.50
71563;DHT22;59391;52.504;13.438;2022-12-07T15:15:44;6.20;70.70
71563;DHT22;59391;52.504;13.438;2022-12-07T15:18:21;6.10;67.50
71563;DHT22;59391;52.504;13.438;2022-12-07T15:20:50;6.10;68.10
71563;DHT22;59391;52.504;13.438;2022-12-07T15:23:19;6.10;67.70
71563;DHT22;59391;52.504;13.438;2022-12-07T15:28:52;6.00;69.20
71563;DHT22;59391;52.504;13.438;2022-12-07T15:31:20;6.00;67.10
71563;DHT22;59391;52.504;13.438;2022-12-07T15:33:54;5.90;68.50
71563;DHT22;59391;52.504;13.438;2022-12-07T15:36:22;5.90;67.80
71563;DHT22;59391;52.504;13.438;2022-12-07T15:38:53;5.90;68.50
71563;DHT22;59391;52.504;13.438;2022-12-07T15:41:20;5.90;67.50
71563;DHT22;59391;52.504;13.438;2022-12-07T15:43:58;5.80;70.30
71563;DHT22;59391;52.504;13.438;2022-12-07T15:46:52;5.90;70.80
71563;DHT22;59391;52.504;13.438;2022-12-07T15:49:19;5.90;69.50
71563;DHT22;59391;52.504;13.438;2022-12-07T15:51:45;5.90;69.50
71563;DHT22;59391;52.504;13.438;2022-12-07T15:54:19;5.90;70.60
71563;DHT22;59391;52.504;13.438;2022-12-07T15:56:49;5.90;70.80
71563;DHT22;59391;52.504;13.438;2022-12-07T15:59:21;5.90;70.30
71563;DHT22;59391;52.504;13.438;2022-12-07T16:01:56;5.90;69.80
71563;DHT22;59391;52.504;13.438;2022-12-07T16:04:33;5.90;69.00
71563;DHT22;59391;52.504;13.438;2022-12-07T16:07:04;5.80;69.40
71563;DHT22;59391;52.504;13.438;2022-12-07T16:09:34;5.90;70.10
71563;DHT22;59391;52.504;13.438;2022-12-07T16:12:06;5.90;69.20
71563;DHT22;59391;52.504;13.438;2022-12-07T16:14:32;5.80;68.80
71563;DHT22;59391;52.504;13.438;2022-12-07T16:17:07;5.80;69.50
71563;DHT22;59391;52.504;13.438;2022-12-07T16:19:37;5.80;69.40
71563;DHT22;59391;52.504;13.438;2022-12-07T16:22:15;5.80;69.60
71563;DHT22;59391;52.504;13.438;2022-12-07T16:24:40;5.80;69.00
71563;DHT22;59391;52.504;13.438;2022-12-07T16:27:27;5.80;69.20
71563;DHT22;59391;52.504;13.438;2022-12-07T16:32:51;5.80;68.40
71563;DHT22;59391;52.504;13.438;2022-12-07T16:35:34;5.70;68.70
71563;DHT22;59391;52.504;13.438;2022-12-07T16:38:06;5.70;69.30
71563;DHT22;59391;52.504;13.438;2022-12-07T16:40:34;5.70;67.80
71563;DHT22;59391;52.504;13.438;2022-12-07T16:43:00;5.60;67.00
71563;DHT22;59391;52.504;13.438;2022-12-07T16:45:25;5.60;69.60
71563;DHT22;59391;52.504;13.438;2022-12-07T16:47:51;5.60;69.70
71563;DHT22;59391;52.504;13.438;2022-12-07T16:50:17;5.60;66.90
71563;DHT22;59391;52.504;13.438;2022-12-07T16:52:45;5.60;69.80
71563;DHT22;59391;52.504;13.438;2022-12-07T16:55:11;5.50;68.40
71563;DHT22;59391;52.504;13.438;2022-12-07T16:57:40;5.60;71.20
71563;DHT22;59391;52.504;13.438;2022-12-07T17:00:07;5.50;67.90
71563;DHT22;59391;52.504;13.438;2022-12-07T17:02:34;5.50;67.70
71563;DHT22;59391;52.504;13.438;2022-12-07T17:04:59;5.50;69.60
71563;DHT22;59391;52.504;13.438;2022-12-07T17:07:25;5.50;69.20
71563;DHT22;59391;52.504;13.438;2022-12-07T17:09:52;5.40;68.30
71563;DHT22;59391;52.504;13.438;2022-12-07T17:12:18;5.40;68.50
71563;DHT22;59391;52.504;13.438;2022-12-07T17:14:44;5.40;68.20
71563;DHT22;59391;52.504;13.438;2022-12-07T17:17:40;5.40;67.10
71563;DHT22;59391;52.504;13.438;2022-12-07T17:20:09;5.40;66.60
71563;DHT22;59391;52.504;13.438;2022-12-07T17:22:48;5.30;67.10
71563;DHT22;59391;52.504;13.438;2022-12-07T17:25:19;5.30;68.40
71563;DHT22;59391;52.504;13.438;2022-12-07T17:27:58;5.30;66.30
71563;DHT22;59391;52.504;13.438;2022-12-07T17:30:37;5.30;68.40
71563;DHT22;59391;52.504;13.438;2022-12-07T17:33:18;5.20;68.10
71563;DHT22;59391;52.504;13.438;2022-12-07T17:35:48;5.20;66.90
71563;DHT22;59391;52.504;13.438;2022-12-07T17:38:17;5.10;67.30
71563;DHT22;59391;52.504;13.438;2022-12-07T17:41:08;5.10;66.40
71563;DHT22;59391;52.504;13.438;2022-12-07T17:44:04;5.10;68.40
71563;DHT22;59391;52.504;13.438;2022-12-07T17:47:12;5.10;66.40
71563;DHT22;59391;52.504;13.438;2022-12-07T17:49:46;5.10;66.50
71563;DHT22;59391;52.504;13.438;2022-12-07T17:52:15;5.10;68.70
71563;DHT22;59391;52.504;13.438;2022-12-07T17:54:59;5.10;68.30
71563;DHT22;59391;52.504;13.438;2022-12-07T17:57:24;5.00;67.90
71563;DHT22;59391;52.504;13.438;2022-12-07T17:59:56;5.00;68.00
71563;DHT22;59391;52.504;13.438;2022-12-07T18:02:22;5.00;68.40
71563;DHT22;59391;52.504;13.438;2022-12-07T18:04:48;5.00;68.10
71563;DHT22;59391;52.504;13.438;2022-12-07T18:07:16;5.00;68.40
71563;DHT22;59391;52.504;13.438;2022-12-07T18:09:47;5.00;68.80
71563;DHT22;59391;52.504;13.438;2022-12-07T18:12:13;5.00;69.10
71563;DHT22;59391;52.504;13.438;2022-12-07T18:14:42;5.00;68.50
71563;DHT22;59391;52.504;13.438;2022-12-07T18:17:10;5.00;69.50
71563;DHT22;59391;52.504;13.438;2022-12-07T18:19:35;4.90;69.00
71563;DHT22;59391;52.504;13.438;2022-12-07T18:22:07;4.90;67.30
71563;DHT22;59391;52.504;13.438;2022-12-07T18:24:36;4.90;69.10
71563;DHT22;59391;52.504;13.438;2022-12-07T18:27:08;4.90;68.60
71563;DHT22;59391;52.504;13.438;2022-12-07T18:29:43;4.90;70.00
71563;DHT22;59391;52.504;13.438;2022-12-07T18:32:08;4.90;68.20
71563;DHT22;59391;52.504;13.438;2022-12-07T18:34:37;4.90;70.00
71563;DHT22;59391;52.504;13.438;2022-12-07T18:37:02;4.90;68.00
71563;DHT22;59391;52.504;13.438;2022-12-07T18:39:28;4.90;69.10
71563;DHT22;59391;52.504;13.438;2022-12-07T18:42:05;4.80;68.20
71563;DHT22;59391;52.504;13.438;2022-12-07T18:44:47;4.80;68.40
71563;DHT22;59391;52.504;13.438;2022-12-07T18:47:19;4.80;68.80
71563;DHT22;59391;52.504;13.438;2022-12-07T18:49:45;4.80;69.40
71563;DHT22;59391;52.504;13.438;2022-12-07T18:52:14;4.80;70.00
71563;DHT22;59391;52.504;13.438;2022-12-07T18:54:57;4.70;69.70
71563;DHT22;59391;52.504;13.438;2022-12-07T18:57:24;4.70;70.10
71563;DHT22;59391;52.504;13.438;2022-12-07T19:00:00;4.70;68.30
71563;DHT22;59391;52.504;13.438;2022-12-07T19:02:34;4.70;69.80
71563;DHT22;59391;52.504;13.438;2022-12-07T19:05:00;4.60;69.00
71563;DHT22;59391;52.504;13.438;2022-12-07T19:07:32;4.60;69.00
71563;DHT22;59391;52.504;13.438;2022-12-07T19:10:06;4.60;68.80
71563;DHT22;59391;52.504;13.438;2022-12-07T19:12:33;4.50;69.60
71563;DHT22;59391;52.504;13.438;2022-12-07T19:15:05;4.60;69.50
71563;DHT22;59391;52.504;13.438;2022-12-07T19:17:41;4.50;69.40
71563;DHT22;59391;52.504;13.438;2022-12-07T19:20:12;4.50;71.80
71563;DHT22;59391;52.504;13.438;2022-12-07T19:22:39;4.50;70.80
71563;DHT22;59391;52.504;13.438;2022-12-07T19:25:05;4.50;70.70
71563;DHT22;59391;52.504;13.438;2022-12-07T19:27:34;4.50;69.20
71563;DHT22;59391;52.504;13.438;2022-12-07T19:30:04;4.40;69.50
71563;DHT22;59391;52.504;13.438;2022-12-07T19:32:40;4.40;70.80
71563;DHT22;59391;52.504;13.438;2022-12-07T19:38:33;4.40;70.30
71563;DHT22;59391;52.504;13.438;2022-12-07T19:44:19;4.30;70.10
71563;DHT22;59391;52.504;13.438;2022-12-07T19:47:08;4.30;70.70
71563;DHT22;59391;52.504;13.438;2022-12-07T19:49:35;4.30;71.10
71563;DHT22;59391;52.504;13.438;2022-12-07T19:52:03;4.30;70.20
71563;DHT22;59391;52.504;13.438;2022-12-07T19:54:33;4.30;69.90
71563;DHT22;59391;52.504;13.438;2022-12-07T19:57:00;4.30;70.70
71563;DHT22;59391;52.504;13.438;2022-12-07T19:59:28;4.30;70.60
71563;DHT22;59391;52.504;13.438;2022-12-07T20:01:54;4.30;70.60
71563;DHT22;59391;52.504;13.438;2022-12-07T20:04:23;4.20;70.80
71563;DHT22;59391;52.504;13.438;2022-12-07T20:06:56;4.20;71.00
71563;DHT22;59391;52.504;13.438;2022-12-07T20:09:34;4.20;70.60
71563;DHT22;59391;52.504;13.438;2022-12-07T20:12:05;4.20;71.90
71563;DHT22;59391;52.504;13.438;2022-12-07T20:14:50;4.20;71.60
71563;DHT22;59391;52.504;13.438;2022-12-07T20:17:15;4.20;72.00
71563;DHT22;59391;52.504;13.438;2022-12-07T20:19:44;4.20;72.80
71563;DHT22;59391;52.504;13.438;2022-12-07T20:22:10;4.20;73.10
71563;DHT22;59391;52.504;13.438;2022-12-07T20:24:36;4.20;72.20
71563;DHT22;59391;52.504;13.438;2022-12-07T20:27:03;4.20;71.70
71563;DHT22;59391;52.504;13.438;2022-12-07T20:29:29;4.20;72.20
71563;DHT22;59391;52.504;13.438;2022-12-07T20:31:56;4.10;71.20
71563;DHT22;59391;52.504;13.438;2022-12-07T20:34:24;4.10;72.40
71563;DHT22;59391;52.504;13.438;2022-12-07T20:36:51;4.10;72.00
71563;DHT22;59391;52.504;13.438;2022-12-07T20:39:23;4.10;71.60
71563;DHT22;59391;52.504;13.438;2022-12-07T20:41:50;4.10;71.20
71563;DHT22;59391;52.504;13.438;2022-12-07T20:44:51;4.10;71.20
71563;DHT22;59391;52.504;13.438;2022-12-07T20:47:19;4.10;71.10
71563;DHT22;59391;52.504;13.438;2022-12-07T20:49:45;4.10;71.80
71563;DHT22;59391;52.504;13.438;2022-12-07T20:52:13;4.00;71.30
71563;DHT22;59391;52.504;13.438;2022-12-07T20:54:39;4.00;71.70
71563;DHT22;59391;52.504;13.438;2022-12-07T20:57:07;4.10;72.10
71563;DHT22;59391;52.504;13.438;2022-12-07T20:59:35;4.00;71.30
71563;DHT22;59391;52.504;13.438;2022-12-07T21:02:01;4.00;71.50
71563;DHT22;59391;52.504;13.438;2022-12-07T21:04:29;4.00;72.10
71563;DHT22;59391;52.504;13.438;2022-12-07T21:06:58;4.00;72.00
71563;DHT22;59391;52.504;13.438;2022-12-07T21:09:25;4.00;72.20
71563;DHT22;59391;52.504;13.438;2022-12-07T21:11:52;4.00;71.20
71563;DHT22;59391;52.504;13.438;2022-12-07T21:14:21;4.00;72.30
71563;DHT22;59391;52.504;13.438;2022-12-07T21:16:47;4.00;72.70
71563;DHT22;59391;52.504;13.438;2022-12-07T21:19:12;4.00;72.30
71563;DHT22;59391;52.504;13.438;2022-12-07T21:21:38;4.00;71.90
71563;DHT22;59391;52.504;13.438;2022-12-07T21:24:05;4.00;73.00
71563;DHT22;59391;52.504;13.438;2022-12-07T21:26:34;4.00;72.60
71563;DHT22;59391;52.504;13.438;2022-12-07T21:29:06;3.90;71.10
71563;DHT22;59391;52.504;13.438;2022-12-07T21:31:32;3.90;72.20
71563;DHT22;59391;52.504;13.438;2022-12-07T21:34:03;3.90;71.90
71563;DHT22;59391;52.504;13.438;2022-12-07T21:36:29;3.90;72.30
71563;DHT22;59391;52.504;13.438;2022-12-07T21:38:56;3.90;72.80
71563;DHT22;59391;52.504;13.438;2022-12-07T21:44:00;3.90;74.90
71563;DHT22;59391;52.504;13.438;2022-12-07T21:46:29;3.90;73.90
71563;DHT22;59391;52.504;13.438;2022-12-07T21:48:58;3.90;73.30
71563;DHT22;59391;52.504;13.438;2022-12-07T21:51:26;3.90;73.70
71563;DHT22;59391;52.504;13.438;2022-12-07T21:53:54;3.90;73.60
71563;DHT22;59391;52.504;13.438;2022-12-07T21:56:30;3.90;73.90
71563;DHT22;59391;52.504;13.438;2022-12-07T21:59:03;3.90;73.40
71563;DHT22;59391;52.504;13.438;2022-12-07T22:01:41;3.90;73.30
71563;DHT22;59391;52.504;13.438;2022-12-07T22:04:14;3.90;73.50
71563;DHT22;59391;52.504;13.438;2022-12-07T22:06:43;3.90;73.30
71563;DHT22;59391;52.504;13.438;2022-12-07T22:09:10;3.90;74.10
71563;DHT22;59391;52.504;13.438;2022-12-07T22:11:37;3.80;73.60
71563;DHT22;59391;52.504;13.438;2022-12-07T22:14:04;3.80;72.80
71563;DHT22;59391;52.504;13.438;2022-12-07T22:16:51;3.80;74.30
71563;DHT22;59391;52.504;13.438;2022-12-07T22:19:17;3.80;73.40
71563;DHT22;59391;52.504;13.438;2022-12-07T22:21:43;3.80;73.50
71563;DHT22;59391;52.504;13.438;2022-12-07T22:24:15;3.80;73.20
71563;DHT22;59391;52.504;13.438;2022-12-07T22:26:44;3.70;73.10
71563;DHT22;59391;52.504;13.438;2022-12-07T22:29:10;3.70;73.00
71563;DHT22;59391;52.504;13.438;2022-12-07T22:31:35;3.70;72.80
71563;DHT22;59391;52.504;13.438;2022-12-07T22:34:02;3.70;73.30
71563;DHT22;59391;52.504;13.438;2022-12-07T22:36:28;3.70;73.20
71563;DHT22;59391;52.504;13.438;2022-12-07T22:38:54;3.70;73.50
71563;DHT22;59391;52.504;13.438;2022-12-07T22:41:30;3.70;73.40
71563;DHT22;59391;52.504;13.438;2022-12-07T22:44:04;3.70;72.90
71563;DHT22;59391;52.504;13.438;2022-12-07T22:46:32;3.70;74.50
71563;DHT22;59391;52.504;13.438;2022-12-07T22:48:58;3.70;74.90
71563;DHT22;59391;52.504;13.438;2022-12-07T22:51:28;3.70;75.00
71563;DHT22;59391;52.504;13.438;2022-12-07T22:54:00;3.70;75.20
71563;DHT22;59391;52.504;13.438;2022-12-07T22:56:28;3.80;74.30
71563;DHT22;59391;52.504;13.438;2022-12-07T22:58:56;3.70;73.70
71563;DHT22;59391;52.504;13.438;2022-12-07T23:01:23;3.70;74.40
71563;DHT22;59391;52.504;13.438;2022-12-07T23:03:49;3.70;73.80
71563;DHT22;59391;52.504;13.438;2022-12-07T23:06:24;3.70;73.20
71563;DHT22;59391;52.504;13.438;2022-12-07T23:08:52;3.70;73.90
71563;DHT22;59391;52.504;13.438;2022-12-07T23:11:23;3.60;73.50
71563;DHT22;59391;52.504;13.438;2022-12-07T23:14:12;3.60;74.50
71563;DHT22;59391;52.504;13.438;2022-12-07T23:16:40;3.60;73.40
71563;DHT22;59391;52.504;13.438;2022-12-07T23:19:07;3.60;74.50
71563;DHT22;59391;52.504;13.438;2022-12-07T23:21:33;3.60;74.10